createdAt,value
2022-10-21T00:00:15.470Z,101036.88
2022-10-21T00:03:21.259Z,101037.81
2022-10-21T00:06:25.598Z,101015.66
2022-10-21T00:09:29.851Z,101017.38
2022-10-21T00:12:35.005Z,101021.78
2022-10-21T00:15:40.026Z,101028.72
2022-10-21T00:18:45.891Z,101012.94
2022-10-21T00:21:50.077Z,101021.78
2022-10-21T00:24:54.169Z,100996.97
2022-10-21T00:27:58.853Z,100982.59
2022-10-21T00:31:03.826Z,100985.91
2022-10-21T00:34:08.163Z,100951.72
2022-10-21T00:37:12.978Z,100972.78
2022-10-21T00:40:17.446Z,100967.38
2022-10-21T00:43:22.264Z,100981.41
2022-10-21T00:46:43.390Z,100952.25
2022-10-21T00:49:57.957Z,100958.28
2022-10-21T00:53:04.299Z,100947.78
2022-10-21T00:56:15.564Z,100948.56
2022-10-21T00:59:22.517Z,100935.50
2022-10-21T01:02:27.433Z,100938.13
2022-10-21T01:05:32.386Z,100942.25
2022-10-21T01:08:37.195Z,100937.84
2022-10-21T01:11:46.623Z,100927.09
2022-10-21T01:15:08.973Z,100922.47
2022-10-21T01:18:20.002Z,100921.72
2022-10-21T01:21:38.610Z,100900.50
2022-10-21T01:24:49.524Z,100909.06
2022-10-21T01:28:09.225Z,100873.69
2022-10-21T01:31:29.086Z,100895.06
2022-10-21T01:34:55.919Z,100876.97
2022-10-21T01:38:35.222Z,100875.66
2022-10-21T01:42:00.471Z,100867.16
2022-10-21T01:45:35.215Z,100868.94
2022-10-21T01:48:46.251Z,100857.66
2022-10-21T01:51:52.462Z,100857.53
2022-10-21T01:55:05.708Z,100842.63
2022-10-21T01:58:32.661Z,100840.81
2022-10-21T02:01:40.253Z,100838.44
2022-10-21T02:04:47.229Z,100826.81
2022-10-21T02:07:51.666Z,100803.78
2022-10-21T02:10:59.590Z,100802.31
2022-10-21T02:14:16.847Z,100807.06
2022-10-21T02:17:23.481Z,100780.41
2022-10-21T02:20:32.627Z,100795.13
2022-10-21T02:23:54.418Z,100778.97
2022-10-21T02:26:59.041Z,100763.31
2022-10-21T02:30:04.568Z,100763.59
2022-10-21T02:33:12.245Z,100760.69
2022-10-21T02:36:27.789Z,100749.22
2022-10-21T02:39:49.300Z,100745.66
2022-10-21T02:43:01.212Z,100743.69
2022-10-21T02:46:13.889Z,100743.28
2022-10-21T02:49:18.484Z,100736.19
2022-10-21T02:52:23.094Z,100726.44
2022-10-21T02:55:27.665Z,100720.34
2022-10-21T02:58:32.421Z,100723.00
2022-10-21T03:01:36.954Z,100700.78
2022-10-21T03:04:41.373Z,100685.22
2022-10-21T03:07:45.856Z,100696.44
2022-10-21T03:10:53.164Z,100680.63
2022-10-21T03:13:58.155Z,100674.47
2022-10-21T03:17:02.456Z,100666.75
2022-10-21T03:20:07.184Z,100664.59
2022-10-21T03:23:11.428Z,100635.19
2022-10-21T03:26:15.844Z,100608.81
2022-10-21T03:29:20.409Z,100594.06
2022-10-21T03:32:24.645Z,100586.91
2022-10-21T03:35:29.438Z,100580.53
2022-10-21T03:38:33.628Z,100578.56
2022-10-21T03:41:37.704Z,100582.28
2022-10-21T03:44:42.292Z,100574.66
2022-10-21T03:47:48.391Z,100573.34
2022-10-21T03:50:52.807Z,100575.81
2022-10-21T03:53:57.132Z,100566.72
2022-10-21T03:57:01.361Z,100553.22
2022-10-21T04:00:06.914Z,100551.75
2022-10-21T04:03:16.391Z,100560.25
2022-10-21T04:06:20.794Z,100550.63
2022-10-21T04:09:25.178Z,100560.75
2022-10-21T04:12:29.423Z,100555.16
2022-10-21T04:15:33.639Z,100549.00
2022-10-21T04:18:38.174Z,100550.63
2022-10-21T04:21:42.645Z,100536.91
2022-10-21T04:24:47.111Z,100536.91
2022-10-21T04:27:51.278Z,100541.13
2022-10-21T04:30:55.514Z,100548.41
2022-10-21T04:34:00.298Z,100548.41
2022-10-21T04:37:05.318Z,100538.16
2022-10-21T04:40:10.786Z,100532.59
2022-10-21T04:43:16.008Z,100541.22
2022-10-21T04:46:21.721Z,100539.97
2022-10-21T04:49:25.690Z,100551.63
2022-10-21T04:52:30.316Z,100547.91
2022-10-21T04:55:35.154Z,100523.38
2022-10-21T04:58:39.429Z,100524.38
2022-10-21T05:01:44.000Z,100515.81
2022-10-21T05:04:48.230Z,100504.88
2022-10-21T05:07:52.724Z,100493.56
2022-10-21T05:11:04.528Z,100475.06
2022-10-21T05:14:08.913Z,100529.19
2022-10-21T05:17:13.381Z,100546.69
2022-10-21T05:20:18.318Z,100569.13
2022-10-21T05:23:23.299Z,100589.91
2022-10-21T05:26:29.874Z,100593.53
2022-10-21T05:29:34.529Z,100604.28
2022-10-21T05:32:40.092Z,100597.47
2022-10-21T05:35:44.438Z,100578.59
2022-10-21T05:38:49.019Z,100568.19
2022-10-21T05:41:53.190Z,100549.56
2022-10-21T05:44:57.882Z,100581.50
2022-10-21T05:48:02.588Z,100577.81
2022-10-21T05:51:09.275Z,100582.09
2022-10-21T05:54:13.687Z,100599.47
2022-10-21T05:57:18.312Z,100601.88
2022-10-21T06:00:22.567Z,100616.47
2022-10-21T06:03:31.076Z,100623.47
2022-10-21T06:06:35.553Z,100618.66
2022-10-21T06:09:40.200Z,100605.44
2022-10-21T06:12:45.458Z,100598.53
2022-10-21T06:15:51.127Z,100594.13
2022-10-21T06:18:55.867Z,100592.50
2022-10-21T06:22:00.437Z,100592.03
2022-10-21T06:25:05.245Z,100598.19
2022-10-21T06:28:09.736Z,100577.13
2022-10-21T06:31:17.022Z,100587.50
2022-10-21T06:34:21.631Z,100570.06
2022-10-21T06:37:26.299Z,100589.66
2022-10-21T06:40:30.704Z,100568.69
2022-10-21T06:43:35.570Z,100589.66
2022-10-21T06:46:40.087Z,100582.97
2022-10-21T06:49:44.678Z,100579.94
2022-10-21T06:52:52.122Z,100589.72
2022-10-21T06:56:11.041Z,100610.13
2022-10-21T06:59:15.607Z,100598.75
2022-10-21T07:02:20.349Z,100607.75
2022-10-21T07:05:24.721Z,100618.63
2022-10-21T07:08:46.337Z,100637.03
2022-10-21T07:11:51.645Z,100633.59
2022-10-21T07:14:56.426Z,100625.53
2022-10-21T07:18:01.909Z,100635.13
2022-10-21T07:21:08.285Z,100641.53
2022-10-21T07:24:16.289Z,100640.13
2022-10-21T07:27:21.902Z,100620.91
2022-10-21T07:30:26.232Z,100602.53
2022-10-21T07:33:30.679Z,100611.16
2022-10-21T07:36:38.255Z,100602.19
2022-10-21T07:39:42.493Z,100587.72
2022-10-21T07:42:47.019Z,100583.91
2022-10-21T07:45:51.274Z,100574.31
2022-10-21T07:48:57.230Z,100589.06
2022-10-21T07:52:01.819Z,100581.91
2022-10-21T07:55:06.478Z,100584.78
2022-10-21T07:58:11.329Z,100591.88
2022-10-21T08:01:16.953Z,100579.44
2022-10-21T08:04:23.028Z,100600.78
2022-10-21T08:07:27.623Z,100580.97
2022-10-21T08:10:33.178Z,100585.41
2022-10-21T08:13:41.588Z,100576.16
2022-10-21T08:16:46.191Z,100583.16
2022-10-21T08:19:51.248Z,100584.00
2022-10-21T08:22:55.646Z,100596.81
2022-10-21T08:26:04.337Z,100615.56
2022-10-21T08:29:09.294Z,100633.19
2022-10-21T08:32:13.736Z,100622.47
2022-10-21T08:35:18.657Z,100628.56
2022-10-21T08:38:23.320Z,100623.72
2022-10-21T08:41:31.144Z,100632.88
2022-10-21T08:45:00.857Z,100631.75
2022-10-21T08:48:14.141Z,100627.41
2022-10-21T08:51:39.074Z,100630.03
2022-10-21T08:54:52.203Z,100634.34
2022-10-21T08:57:56.698Z,100634.28
2022-10-21T09:01:32.621Z,100642.94
2022-10-21T09:04:53.594Z,100641.53
2022-10-21T09:08:27.996Z,100630.19
2022-10-21T09:11:48.601Z,100627.25
2022-10-21T09:15:17.140Z,100628.16
2022-10-21T09:18:39.742Z,100632.59
2022-10-21T09:22:29.996Z,100638.41
2022-10-21T09:25:36.160Z,100636.34
2022-10-21T09:28:41.058Z,100640.63
2022-10-21T09:31:48.776Z,100615.56
2022-10-21T09:35:10.946Z,100618.91
2022-10-21T09:38:26.976Z,100603.75
2022-10-21T09:41:40.101Z,100602.88
2022-10-21T09:44:49.542Z,100598.41
2022-10-21T09:48:00.174Z,100589.19
2022-10-21T09:51:15.592Z,100576.59
2022-10-21T09:54:23.847Z,100571.84
2022-10-21T09:57:42.570Z,100590.47
2022-10-21T10:00:51.854Z,100592.41
2022-10-21T10:03:56.581Z,100575.28
2022-10-21T10:07:38.524Z,100577.00
2022-10-21T10:10:43.127Z,100565.47
2022-10-21T10:13:53.566Z,100571.28
2022-10-21T10:17:20.588Z,100580.97
2022-10-21T10:20:25.220Z,100574.09
2022-10-21T10:23:29.838Z,100565.13
2022-10-21T10:26:43.354Z,100576.56
2022-10-21T10:30:00.895Z,100506.88
2022-10-21T10:33:17.806Z,100570.53
2022-10-21T10:36:38.028Z,100552.75
2022-10-21T10:39:46.689Z,100558.72
2022-10-21T10:43:13.074Z,100549.28
2022-10-21T10:46:36.890Z,100559.19
2022-10-21T10:49:44.873Z,100552.78
2022-10-21T10:52:49.531Z,100547.66
2022-10-21T10:56:17.577Z,100565.06
2022-10-21T10:59:30.441Z,100573.06
2022-10-21T11:02:57.043Z,100565.31
2022-10-21T11:06:26.975Z,100559.09
2022-10-21T11:09:35.128Z,100561.63
2022-10-21T11:12:39.554Z,100552.75
2022-10-21T11:15:59.789Z,100563.97
2022-10-21T11:19:36.712Z,100570.25
2022-10-21T11:23:10.609Z,100568.22
2022-10-21T11:26:37.685Z,100571.09
2022-10-21T11:30:10.456Z,100564.28
2022-10-21T11:33:47.226Z,100563.31
2022-10-21T11:37:16.007Z,100562.66
2022-10-21T11:40:35.279Z,100567.16
2022-10-21T11:43:53.558Z,100547.78
2022-10-21T11:47:21.448Z,100553.03
2022-10-21T11:50:33.443Z,100566.25
2022-10-21T11:53:40.483Z,100576.06
2022-10-21T11:57:09.216Z,100569.94
2022-10-21T12:00:21.487Z,100584.66
2022-10-21T12:03:49.725Z,100584.56
2022-10-21T12:07:14.217Z,100582.81
2022-10-21T12:10:48.595Z,100595.38
2022-10-21T12:14:05.014Z,100573.41
2022-10-21T12:17:16.891Z,100586.31
2022-10-21T12:20:27.232Z,100595.06
2022-10-21T12:23:37.073Z,100592.59
2022-10-21T12:26:49.733Z,100585.00
2022-10-21T12:30:24.847Z,100590.28
2022-10-21T12:33:44.603Z,100603.31
2022-10-21T12:36:51.989Z,100585.91
2022-10-21T12:40:14.423Z,100612.41
2022-10-21T12:43:29.300Z,100604.47
2022-10-21T12:46:44.837Z,100601.78
2022-10-21T12:50:11.374Z,100594.16
2022-10-21T12:53:43.832Z,100608.28
2022-10-21T12:57:23.600Z,100578.69
2022-10-21T13:00:31.332Z,100608.38
2022-10-21T13:03:53.015Z,100608.28
2022-10-21T13:06:59.663Z,100617.03
2022-10-21T13:10:06.973Z,100615.75
2022-10-21T13:13:30.972Z,100613.09
2022-10-21T13:16:41.758Z,100610.59
2022-10-21T13:19:47.239Z,100608.81
2022-10-21T13:23:03.372Z,100607.00
2022-10-21T13:26:19.515Z,100605.41
2022-10-21T13:29:39.529Z,100595.66
2022-10-21T13:32:43.827Z,100601.69
2022-10-21T13:35:51.485Z,100609.44
2022-10-21T13:38:58.889Z,100604.50
2022-10-21T13:42:15.686Z,100582.41
2022-10-21T13:45:33.355Z,100600.59
2022-10-21T13:48:42.230Z,100605.84
2022-10-21T13:51:48.360Z,100608.63
2022-10-21T13:55:03.208Z,100606.13
2022-10-21T13:58:16.928Z,100604.34
2022-10-21T14:01:27.332Z,100606.03
2022-10-21T14:04:34.568Z,100598.38
2022-10-21T14:07:42.011Z,100607.22
2022-10-21T14:10:48.865Z,100600.25
2022-10-21T14:13:53.238Z,100584.34
2022-10-21T14:17:01.490Z,100594.97
2022-10-21T14:20:34.479Z,100610.66
2022-10-21T14:23:39.895Z,100595.84
2022-10-21T14:26:47.045Z,100599.13
2022-10-21T14:29:51.822Z,100599.31
2022-10-21T14:33:07.017Z,100600.06
2022-10-21T14:36:25.736Z,100598.41
2022-10-21T14:39:31.586Z,100595.84
2022-10-21T14:42:35.616Z,100609.06
2022-10-21T14:45:47.022Z,100612.66
2022-10-21T14:49:00.867Z,100613.19
2022-10-21T14:52:08.343Z,100617.84
2022-10-21T14:55:17.752Z,100628.41
2022-10-21T14:58:27.145Z,100628.25
2022-10-21T15:01:32.580Z,100621.38
2022-10-21T15:04:52.509Z,100627.63
2022-10-21T15:08:16.822Z,100627.44
2022-10-21T15:11:24.203Z,100614.34
2022-10-21T15:14:31.452Z,100611.00
2022-10-21T15:17:35.975Z,100619.69
2022-10-21T15:20:40.741Z,100612.53
2022-10-21T15:23:51.983Z,100622.19
2022-10-21T15:27:00.725Z,100608.22
2022-10-21T15:30:20.317Z,100623.22
2022-10-21T15:33:24.711Z,100623.19
2022-10-21T15:36:28.983Z,100618.59
2022-10-21T15:39:33.123Z,100601.59
2022-10-21T15:42:37.593Z,100613.00
2022-10-21T15:45:43.855Z,100624.34
2022-10-21T15:48:48.352Z,100614.72
2022-10-21T15:51:52.818Z,100621.81
2022-10-21T15:54:57.890Z,100600.78
2022-10-21T15:58:02.339Z,100613.16
2022-10-21T16:01:12.823Z,100621.81
2022-10-21T16:04:18.372Z,100618.13
2022-10-21T16:07:37.783Z,100618.25
2022-10-21T16:10:49.930Z,100620.28
2022-10-21T16:13:54.233Z,100613.25
2022-10-21T16:17:01.571Z,100618.34
2022-10-21T16:20:06.456Z,100580.84
2022-10-21T16:23:12.450Z,100606.25
2022-10-21T16:26:22.874Z,100580.72
2022-10-21T16:29:27.191Z,100619.13
2022-10-21T16:32:31.653Z,100581.75
2022-10-21T16:35:36.276Z,100611.53
2022-10-21T16:38:42.388Z,100630.72
2022-10-21T16:41:46.825Z,100625.44
2022-10-21T16:44:52.148Z,100654.78
2022-10-21T16:48:00.506Z,100650.13
2022-10-21T16:51:04.862Z,100649.28
2022-10-21T16:54:09.588Z,100658.81
2022-10-21T16:57:13.795Z,100655.28
2022-10-21T17:00:19.930Z,100636.06
2022-10-21T17:03:24.631Z,100653.44
2022-10-21T17:06:29.218Z,100654.47
2022-10-21T17:09:33.826Z,100651.91
2022-10-21T17:12:38.516Z,100648.56
2022-10-21T17:15:42.717Z,100649.41
2022-10-21T17:18:47.675Z,100651.09
2022-10-21T17:21:51.898Z,100650.13
2022-10-21T17:24:56.347Z,100667.84
2022-10-21T17:28:00.970Z,100659.22
2022-10-21T17:31:05.285Z,100660.19
2022-10-21T17:34:24.094Z,100667.97
2022-10-21T17:37:28.618Z,100663.69
2022-10-21T17:40:33.202Z,100669.91
2022-10-21T17:43:37.816Z,100669.91
2022-10-21T17:46:42.158Z,100672.53
2022-10-21T17:49:46.580Z,100683.25
2022-10-21T17:52:54.395Z,100687.72
2022-10-21T17:56:01.643Z,100681.63
2022-10-21T17:59:06.394Z,100685.19
2022-10-21T18:02:11.570Z,100699.31
2022-10-21T18:08:54.786Z,100697.44
2022-10-21T18:12:03.394Z,100686.19
2022-10-21T18:15:08.983Z,100690.63
2022-10-21T18:18:13.846Z,100675.78
2022-10-21T18:21:23.693Z,100684.59
2022-10-21T18:24:29.308Z,100676.75
2022-10-21T18:27:33.742Z,100697.09
2022-10-21T18:30:43.558Z,100695.31
2022-10-21T18:33:48.659Z,100697.16
2022-10-21T18:40:02.078Z,100697.19
2022-10-21T18:43:07.163Z,100699.81
2022-10-21T18:46:11.298Z,100699.88
2022-10-21T18:49:19.301Z,100714.72
2022-10-21T18:52:23.833Z,100718.25
2022-10-21T18:55:28.401Z,100721.81
2022-10-21T18:58:36.238Z,100716.53
2022-10-21T19:01:41.219Z,100680.63
2022-10-21T19:04:45.675Z,100716.66
2022-10-21T19:07:50.622Z,100712.28
2022-10-21T19:10:54.678Z,100721.13
2022-10-21T19:13:59.291Z,100721.16
2022-10-21T19:17:03.590Z,100717.59
2022-10-21T19:20:09.084Z,100717.69
2022-10-21T19:23:13.561Z,100725.53
2022-10-21T19:26:21.073Z,100745.72
2022-10-21T19:29:27.936Z,100740.44
2022-10-21T19:32:33.708Z,100747.56
2022-10-21T19:35:38.591Z,100745.75
2022-10-21T19:38:44.803Z,100745.75
2022-10-21T19:41:49.341Z,100741.41
2022-10-21T19:44:53.924Z,100731.78
2022-10-21T19:47:58.589Z,100755.41
2022-10-21T19:51:04.432Z,100753.66
2022-10-21T19:54:10.608Z,100759.88
2022-10-21T19:57:14.828Z,100755.50
2022-10-21T20:00:19.313Z,100756.41
2022-10-21T20:03:23.974Z,100753.72
2022-10-21T20:06:33.905Z,100766.00
2022-10-21T20:09:38.976Z,100757.25
2022-10-21T20:12:43.250Z,100766.03
2022-10-21T20:15:51.191Z,100763.44
2022-10-21T20:18:56.422Z,100763.34
2022-10-21T20:22:00.962Z,100773.03
2022-10-21T20:25:05.563Z,100749.38
2022-10-21T20:28:10.079Z,100758.97
2022-10-21T20:31:16.998Z,100773.03
2022-10-21T20:34:21.402Z,100769.50
2022-10-21T20:37:25.844Z,100755.44
2022-10-21T20:40:30.175Z,100780.00
2022-10-21T20:43:39.552Z,100787.94
2022-10-21T20:46:44.581Z,100777.38
2022-10-21T20:49:48.992Z,100773.78
2022-10-21T20:52:53.281Z,100776.47
2022-10-21T20:55:57.730Z,100775.63
2022-10-21T20:59:03.081Z,100794.06
2022-10-21T21:02:07.812Z,100775.63
2022-10-21T21:05:12.351Z,100743.97
2022-10-21T21:08:17.246Z,100776.53
2022-10-21T21:11:22.420Z,100783.53
2022-10-21T21:14:26.725Z,100781.81
2022-10-21T21:17:30.990Z,100787.91
2022-10-21T21:20:35.505Z,100782.66
2022-10-21T21:23:41.792Z,100771.25
2022-10-21T21:26:46.665Z,100789.75
2022-10-21T21:29:51.246Z,100795.00
2022-10-21T21:32:55.835Z,100795.00
2022-10-21T21:36:00.364Z,100801.16
2022-10-21T21:39:05.746Z,100795.00
2022-10-21T21:46:41.883Z,100794.09
2022-10-21T21:49:46.329Z,100782.72
2022-10-21T21:52:54.082Z,100766.91
2022-10-21T21:56:03.454Z,100776.53
2022-10-21T21:59:08.166Z,100769.53
2022-10-21T22:02:14.747Z,100775.72
2022-10-21T22:05:23.599Z,100796.75
2022-10-21T22:08:30.646Z,100786.25
2022-10-21T22:11:41.427Z,100802.00
2022-10-21T22:14:48.695Z,100788.94
2022-10-21T22:17:53.970Z,100829.28
2022-10-21T22:21:11.038Z,100843.34
2022-10-21T22:24:15.327Z,100822.28
2022-10-21T22:27:20.034Z,100825.78
2022-10-21T22:30:24.402Z,100837.19
2022-10-21T22:33:29.349Z,100843.34
2022-10-21T22:36:35.482Z,100817.00
2022-10-21T22:39:39.903Z,100830.16
2022-10-21T22:45:57.647Z,100849.44
2022-10-21T22:49:17.566Z,100831.88
2022-10-21T22:52:25.136Z,100852.00
2022-10-21T22:55:35.589Z,100870.47
2022-10-21T22:58:41.388Z,100864.41
2022-10-21T23:01:45.309Z,100874.97
2022-10-21T23:04:52.543Z,100873.22
2022-10-21T23:07:58.842Z,100877.59
2022-10-21T23:11:03.010Z,100894.28
2022-10-21T23:14:08.714Z,100898.72
2022-10-21T23:17:13.306Z,100892.56
2022-10-21T23:20:17.821Z,100881.09
2022-10-21T23:23:21.936Z,100892.53
2022-10-21T23:26:26.856Z,100879.38
2022-10-21T23:29:37.447Z,100896.97
2022-10-21T23:32:42.662Z,100889.91
2022-10-21T23:35:52.094Z,100881.13
2022-10-21T23:38:57.667Z,100906.56
2022-10-21T23:42:01.706Z,100896.03
2022-10-21T23:45:08.405Z,100790.72
2022-10-21T23:48:15.713Z,100879.41
2022-10-21T23:51:20.207Z,100910.16
2022-10-21T23:54:24.744Z,100913.66
2022-10-21T23:57:29.395Z,100929.44
